sensor_id;sensor_type;location;lat;lon;timestamp;P1;durP1;ratioP1;P2;durP2;ratioP2
54430;SDS011;40342;52.998;5.862;2023-06-22T00:02:15;9.50;;;8.60;;
54430;SDS011;40342;52.998;5.862;2023-06-22T00:04:41;9.90;;;8.90;;
54430;SDS011;40342;52.998;5.862;2023-06-22T00:07:06;10.52;;;9.63;;
54430;SDS011;40342;52.998;5.862;2023-06-22T00:09:32;11.45;;;10.45;;
54430;SDS011;40342;52.998;5.862;2023-06-22T00:11:58;10.90;;;10.00;;
54430;SDS011;40342;52.998;5.862;2023-06-22T00:14:24;10.20;;;9.32;;
54430;SDS011;40342;52.998;5.862;2023-06-22T00:16:49;10.25;;;9.32;;
54430;SDS011;40342;52.998;5.862;2023-06-22T00:19:19;8.35;;;7.70;;
54430;SDS011;40342;52.998;5.862;2023-06-22T00:21:46;9.18;;;7.57;;
54430;SDS011;40342;52.998;5.862;2023-06-22T00:24:12;6.32;;;5.82;;
54430;SDS011;40342;52.998;5.862;2023-06-22T00:26:38;6.40;;;5.90;;
54430;SDS011;40342;52.998;5.862;2023-06-22T00:29:04;6.55;;;6.05;;
54430;SDS011;40342;52.998;5.862;2023-06-22T00:31:29;5.82;;;5.30;;
54430;SDS011;40342;52.998;5.862;2023-06-22T00:33:55;8.15;;;7.40;;
54430;SDS011;40342;52.998;5.862;2023-06-22T00:36:20;8.40;;;7.68;;
54430;SDS011;40342;52.998;5.862;2023-06-22T00:38:46;8.05;;;7.35;;
54430;SDS011;40342;52.998;5.862;2023-06-22T00:41:12;9.65;;;8.80;;
54430;SDS011;40342;52.998;5.862;2023-06-22T00:43:37;8.18;;;7.38;;
54430;SDS011;40342;52.998;5.862;2023-06-22T00:46:03;4.60;;;2.78;;
54430;SDS011;40342;52.998;5.862;2023-06-22T00:48:29;6.00;;;2.42;;
54430;SDS011;40342;52.998;5.862;2023-06-22T00:50:54;1.90;;;1.80;;
54430;SDS011;40342;52.998;5.862;2023-06-22T00:53:21;2.60;;;2.10;;
54430;SDS011;40342;52.998;5.862;2023-06-22T00:55:46;3.45;;;2.90;;
54430;SDS011;40342;52.998;5.862;2023-06-22T00:58:16;2.88;;;2.70;;
54430;SDS011;40342;52.998;5.862;2023-06-22T01:00:46;4.18;;;3.88;;
54430;SDS011;40342;52.998;5.862;2023-06-22T01:03:12;4.00;;;3.58;;
54430;SDS011;40342;52.998;5.862;2023-06-22T01:05:38;5.80;;;5.40;;
54430;SDS011;40342;52.998;5.862;2023-06-22T01:13:41;4.50;;;4.20;;
54430;SDS011;40342;52.998;5.862;2023-06-22T01:16:30;7.55;;;6.47;;
54430;SDS011;40342;52.998;5.862;2023-06-22T01:18:59;9.80;;;8.90;;
54430;SDS011;40342;52.998;5.862;2023-06-22T01:21:28;8.77;;;8.02;;
54430;SDS011;40342;52.998;5.862;2023-06-22T01:23:59;8.90;;;8.13;;
54430;SDS011;40342;52.998;5.862;2023-06-22T01:29:57;5.70;;;5.20;;
54430;SDS011;40342;52.998;5.862;2023-06-22T01:32:32;6.10;;;5.50;;
54430;SDS011;40342;52.998;5.862;2023-06-22T01:35:01;5.00;;;4.60;;
54430;SDS011;40342;52.998;5.862;2023-06-22T01:37:29;5.30;;;5.00;;
54430;SDS011;40342;52.998;5.862;2023-06-22T01:39:57;5.50;;;5.10;;
54430;SDS011;40342;52.998;5.862;2023-06-22T01:42:24;5.72;;;4.78;;
54430;SDS011;40342;52.998;5.862;2023-06-22T01:44:50;4.63;;;4.22;;
54430;SDS011;40342;52.998;5.862;2023-06-22T01:47:18;3.58;;;3.38;;
54430;SDS011;40342;52.998;5.862;2023-06-22T01:49:44;4.18;;;3.88;;
54430;SDS011;40342;52.998;5.862;2023-06-22T01:52:11;5.13;;;4.72;;
54430;SDS011;40342;52.998;5.862;2023-06-22T01:54:37;4.72;;;4.43;;
54430;SDS011;40342;52.998;5.862;2023-06-22T01:57:04;6.65;;;6.05;;
54430;SDS011;40342;52.998;5.862;2023-06-22T01:59:52;6.13;;;5.45;;
54430;SDS011;40342;52.998;5.862;2023-06-22T02:02:41;5.80;;;5.30;;
54430;SDS011;40342;52.998;5.862;2023-06-22T02:05:13;8.45;;;7.75;;
54430;SDS011;40342;52.998;5.862;2023-06-22T02:07:49;9.70;;;8.90;;
54430;SDS011;40342;52.998;5.862;2023-06-22T02:10:20;10.27;;;8.80;;
54430;SDS011;40342;52.998;5.862;2023-06-22T02:12:46;8.05;;;7.25;;
54430;SDS011;40342;52.998;5.862;2023-06-22T02:15:13;9.07;;;8.20;;
54430;SDS011;40342;52.998;5.862;2023-06-22T02:17:40;10.90;;;8.60;;
54430;SDS011;40342;52.998;5.862;2023-06-22T02:20:11;8.55;;;6.60;;
54430;SDS011;40342;52.998;5.862;2023-06-22T02:22:38;16.02;;;5.70;;
54430;SDS011;40342;52.998;5.862;2023-06-22T02:25:03;5.50;;;4.95;;
54430;SDS011;40342;52.998;5.862;2023-06-22T02:27:29;19.17;;;4.93;;
54430;SDS011;40342;52.998;5.862;2023-06-22T02:29:55;6.05;;;5.65;;
54430;SDS011;40342;52.998;5.862;2023-06-22T02:32:20;6.28;;;5.88;;
54430;SDS011;40342;52.998;5.862;2023-06-22T02:34:46;5.65;;;5.25;;
54430;SDS011;40342;52.998;5.862;2023-06-22T02:37:14;5.30;;;4.93;;
54430;SDS011;40342;52.998;5.862;2023-06-22T02:39:40;5.25;;;4.90;;
54430;SDS011;40342;52.998;5.862;2023-06-22T02:42:05;5.13;;;4.63;;
54430;SDS011;40342;52.998;5.862;2023-06-22T02:44:31;4.70;;;4.40;;
54430;SDS011;40342;52.998;5.862;2023-06-22T02:46:57;4.65;;;4.30;;
54430;SDS011;40342;52.998;5.862;2023-06-22T02:49:23;5.97;;;5.47;;
54430;SDS011;40342;52.998;5.862;2023-06-22T02:51:48;5.97;;;5.57;;
54430;SDS011;40342;52.998;5.862;2023-06-22T02:54:14;7.15;;;6.25;;
54430;SDS011;40342;52.998;5.862;2023-06-22T02:56:41;6.32;;;5.80;;
54430;SDS011;40342;52.998;5.862;2023-06-22T02:59:09;7.00;;;6.18;;
54430;SDS011;40342;52.998;5.862;2023-06-22T03:01:35;11.80;;;5.38;;
54430;SDS011;40342;52.998;5.862;2023-06-22T03:04:04;14.43;;;5.35;;
54430;SDS011;40342;52.998;5.862;2023-06-22T03:06:31;7.05;;;5.97;;
54430;SDS011;40342;52.998;5.862;2023-06-22T03:08:59;6.78;;;5.93;;
54430;SDS011;40342;52.998;5.862;2023-06-22T03:11:26;6.65;;;6.05;;
54430;SDS011;40342;52.998;5.862;2023-06-22T03:13:51;5.60;;;5.20;;
54430;SDS011;40342;52.998;5.862;2023-06-22T03:16:18;4.30;;;4.10;;
54430;SDS011;40342;52.998;5.862;2023-06-22T03:18:44;4.47;;;4.28;;
54430;SDS011;40342;52.998;5.862;2023-06-22T03:21:10;4.05;;;3.75;;
54430;SDS011;40342;52.998;5.862;2023-06-22T03:23:35;3.20;;;3.10;;
54430;SDS011;40342;52.998;5.862;2023-06-22T03:26:01;3.85;;;3.65;;
54430;SDS011;40342;52.998;5.862;2023-06-22T03:28:27;3.17;;;3.03;;
54430;SDS011;40342;52.998;5.862;2023-06-22T03:30:53;4.10;;;3.70;;
54430;SDS011;40342;52.998;5.862;2023-06-22T03:33:19;3.60;;;3.40;;
54430;SDS011;40342;52.998;5.862;2023-06-22T03:35:44;4.63;;;4.35;;
54430;SDS011;40342;52.998;5.862;2023-06-22T03:38:10;4.13;;;3.83;;
54430;SDS011;40342;52.998;5.862;2023-06-22T03:40:35;5.07;;;4.75;;
54430;SDS011;40342;52.998;5.862;2023-06-22T03:43:01;4.72;;;4.43;;
54430;SDS011;40342;52.998;5.862;2023-06-22T03:45:26;3.78;;;3.47;;
54430;SDS011;40342;52.998;5.862;2023-06-22T03:47:52;3.25;;;3.08;;
54430;SDS011;40342;52.998;5.862;2023-06-22T03:50:18;4.88;;;4.57;;
54430;SDS011;40342;52.998;5.862;2023-06-22T03:52:45;2.10;;;1.90;;
54430;SDS011;40342;52.998;5.862;2023-06-22T03:55:11;2.55;;;2.33;;
54430;SDS011;40342;52.998;5.862;2023-06-22T03:57:36;2.40;;;2.30;;
54430;SDS011;40342;52.998;5.862;2023-06-22T04:00:02;2.63;;;2.50;;
54430;SDS011;40342;52.998;5.862;2023-06-22T04:02:30;4.72;;;4.32;;
54430;SDS011;40342;52.998;5.862;2023-06-22T04:04:56;6.35;;;5.70;;
54430;SDS011;40342;52.998;5.862;2023-06-22T04:07:22;6.40;;;5.90;;
54430;SDS011;40342;52.998;5.862;2023-06-22T04:09:47;6.53;;;5.95;;
54430;SDS011;40342;52.998;5.862;2023-06-22T04:12:13;7.63;;;6.97;;
54430;SDS011;40342;52.998;5.862;2023-06-22T04:14:38;9.25;;;8.43;;
54430;SDS011;40342;52.998;5.862;2023-06-22T04:17:04;10.18;;;9.25;;
54430;SDS011;40342;52.998;5.862;2023-06-22T04:19:30;9.23;;;8.43;;
54430;SDS011;40342;52.998;5.862;2023-06-22T04:21:55;8.85;;;7.97;;
54430;SDS011;40342;52.998;5.862;2023-06-22T04:24:21;8.15;;;7.50;;
54430;SDS011;40342;52.998;5.862;2023-06-22T04:26:47;7.25;;;6.72;;
54430;SDS011;40342;52.998;5.862;2023-06-22T04:29:12;7.88;;;7.28;;
54430;SDS011;40342;52.998;5.862;2023-06-22T04:31:38;6.63;;;6.13;;
54430;SDS011;40342;52.998;5.862;2023-06-22T04:34:04;7.18;;;6.68;;
54430;SDS011;40342;52.998;5.862;2023-06-22T04:36:34;6.90;;;6.40;;
54430;SDS011;40342;52.998;5.862;2023-06-22T04:39:05;6.90;;;6.40;;
54430;SDS011;40342;52.998;5.862;2023-06-22T04:41:32;7.45;;;6.85;;
54430;SDS011;40342;52.998;5.862;2023-06-22T04:44:10;8.10;;;7.50;;
54430;SDS011;40342;52.998;5.862;2023-06-22T04:46:53;8.32;;;7.63;;
54430;SDS011;40342;52.998;5.862;2023-06-22T04:49:25;8.30;;;7.70;;
54430;SDS011;40342;52.998;5.862;2023-06-22T04:51:57;9.45;;;8.50;;
54430;SDS011;40342;52.998;5.862;2023-06-22T04:54:26;10.35;;;9.45;;
54430;SDS011;40342;52.998;5.862;2023-06-22T04:56:52;10.90;;;9.85;;
54430;SDS011;40342;52.998;5.862;2023-06-22T04:59:23;11.02;;;9.85;;
54430;SDS011;40342;52.998;5.862;2023-06-22T05:01:57;11.63;;;10.50;;
54430;SDS011;40342;52.998;5.862;2023-06-22T05:04:24;12.05;;;10.95;;
54430;SDS011;40342;52.998;5.862;2023-06-22T05:06:51;20.58;;;9.65;;
54430;SDS011;40342;52.998;5.862;2023-06-22T05:09:17;11.38;;;10.38;;
54430;SDS011;40342;52.998;5.862;2023-06-22T05:11:43;10.68;;;9.75;;
54430;SDS011;40342;52.998;5.862;2023-06-22T05:14:09;10.13;;;9.13;;
54430;SDS011;40342;52.998;5.862;2023-06-22T05:16:35;10.93;;;9.93;;
54430;SDS011;40342;52.998;5.862;2023-06-22T05:19:01;10.10;;;9.30;;
54430;SDS011;40342;52.998;5.862;2023-06-22T05:21:29;11.32;;;10.32;;
54430;SDS011;40342;52.998;5.862;2023-06-22T05:23:55;11.85;;;10.75;;
54430;SDS011;40342;52.998;5.862;2023-06-22T05:26:24;12.27;;;11.18;;
54430;SDS011;40342;52.998;5.862;2023-06-22T05:28:51;12.82;;;11.57;;
54430;SDS011;40342;52.998;5.862;2023-06-22T05:31:20;12.63;;;11.43;;
54430;SDS011;40342;52.998;5.862;2023-06-22T05:33:46;13.18;;;11.85;;
54430;SDS011;40342;52.998;5.862;2023-06-22T05:36:13;15.10;;;13.60;;
54430;SDS011;40342;52.998;5.862;2023-06-22T05:38:39;15.70;;;14.05;;
54430;SDS011;40342;52.998;5.862;2023-06-22T05:41:05;14.30;;;12.82;;
54430;SDS011;40342;52.998;5.862;2023-06-22T05:43:31;17.00;;;14.68;;
54430;SDS011;40342;52.998;5.862;2023-06-22T05:45:56;15.68;;;14.05;;
54430;SDS011;40342;52.998;5.862;2023-06-22T05:48:22;15.93;;;14.30;;
54430;SDS011;40342;52.998;5.862;2023-06-22T05:50:48;15.82;;;14.23;;
54430;SDS011;40342;52.998;5.862;2023-06-22T05:53:13;18.23;;;15.15;;
54430;SDS011;40342;52.998;5.862;2023-06-22T05:55:39;16.02;;;14.38;;
54430;SDS011;40342;52.998;5.862;2023-06-22T05:58:05;16.92;;;15.30;;
54430;SDS011;40342;52.998;5.862;2023-06-22T06:00:31;16.92;;;15.32;;
54430;SDS011;40342;52.998;5.862;2023-06-22T06:02:57;15.50;;;13.88;;
54430;SDS011;40342;52.998;5.862;2023-06-22T06:05:28;16.98;;;14.90;;
54430;SDS011;40342;52.998;5.862;2023-06-22T06:07:56;16.70;;;14.98;;
54430;SDS011;40342;52.998;5.862;2023-06-22T06:10:22;15.05;;;13.55;;
54430;SDS011;40342;52.998;5.862;2023-06-22T06:12:48;17.17;;;15.43;;
54430;SDS011;40342;52.998;5.862;2023-06-22T06:15:13;18.52;;;16.63;;
54430;SDS011;40342;52.998;5.862;2023-06-22T06:17:49;17.42;;;15.70;;
54430;SDS011;40342;52.998;5.862;2023-06-22T06:20:18;17.95;;;16.17;;
54430;SDS011;40342;52.998;5.862;2023-06-22T06:22:45;19.23;;;17.30;;
54430;SDS011;40342;52.998;5.862;2023-06-22T06:25:11;18.42;;;16.60;;
54430;SDS011;40342;52.998;5.862;2023-06-22T06:27:41;18.15;;;16.00;;
54430;SDS011;40342;52.998;5.862;2023-06-22T06:30:14;18.52;;;16.70;;
54430;SDS011;40342;52.998;5.862;2023-06-22T06:32:40;17.05;;;15.20;;
54430;SDS011;40342;52.998;5.862;2023-06-22T06:35:07;19.27;;;17.15;;
54430;SDS011;40342;52.998;5.862;2023-06-22T06:37:37;19.17;;;16.77;;
54430;SDS011;40342;52.998;5.862;2023-06-22T06:40:07;18.70;;;16.75;;
54430;SDS011;40342;52.998;5.862;2023-06-22T06:42:35;17.98;;;16.20;;
54430;SDS011;40342;52.998;5.862;2023-06-22T06:45:05;19.40;;;17.48;;
54430;SDS011;40342;52.998;5.862;2023-06-22T06:47:31;19.75;;;17.52;;
54430;SDS011;40342;52.998;5.862;2023-06-22T06:49:57;18.70;;;16.80;;
54430;SDS011;40342;52.998;5.862;2023-06-22T06:52:23;23.05;;;18.38;;
54430;SDS011;40342;52.998;5.862;2023-06-22T06:54:48;23.23;;;19.02;;
54430;SDS011;40342;52.998;5.862;2023-06-22T06:57:14;19.95;;;17.65;;
54430;SDS011;40342;52.998;5.862;2023-06-22T06:59:40;18.83;;;16.92;;
54430;SDS011;40342;52.998;5.862;2023-06-22T07:02:06;18.75;;;16.75;;
54430;SDS011;40342;52.998;5.862;2023-06-22T07:04:32;20.52;;;16.70;;
54430;SDS011;40342;52.998;5.862;2023-06-22T07:06:58;17.50;;;15.82;;
54430;SDS011;40342;52.998;5.862;2023-06-22T07:09:26;18.52;;;16.70;;
54430;SDS011;40342;52.998;5.862;2023-06-22T07:11:51;19.25;;;16.80;;
54430;SDS011;40342;52.998;5.862;2023-06-22T07:14:17;21.60;;;16.20;;
54430;SDS011;40342;52.998;5.862;2023-06-22T07:16:42;18.27;;;15.52;;
54430;SDS011;40342;52.998;5.862;2023-06-22T07:19:08;16.20;;;14.70;;
54430;SDS011;40342;52.998;5.862;2023-06-22T07:21:36;18.20;;;16.30;;
54430;SDS011;40342;52.998;5.862;2023-06-22T07:24:01;16.77;;;15.15;;
54430;SDS011;40342;52.998;5.862;2023-06-22T07:26:27;15.55;;;14.00;;
54430;SDS011;40342;52.998;5.862;2023-06-22T07:28:52;16.00;;;14.38;;
54430;SDS011;40342;52.998;5.862;2023-06-22T07:31:18;16.27;;;14.50;;
54430;SDS011;40342;52.998;5.862;2023-06-22T07:33:43;15.98;;;14.45;;
54430;SDS011;40342;52.998;5.862;2023-06-22T07:36:09;14.75;;;13.35;;
54430;SDS011;40342;52.998;5.862;2023-06-22T07:38:34;14.68;;;13.38;;
54430;SDS011;40342;52.998;5.862;2023-06-22T07:41:00;15.07;;;13.32;;
54430;SDS011;40342;52.998;5.862;2023-06-22T07:43:27;15.52;;;13.25;;
54430;SDS011;40342;52.998;5.862;2023-06-22T07:45:55;17.77;;;12.73;;
54430;SDS011;40342;52.998;5.862;2023-06-22T07:48:20;13.93;;;12.50;;
54430;SDS011;40342;52.998;5.862;2023-06-22T07:50:47;13.98;;;12.52;;
54430;SDS011;40342;52.998;5.862;2023-06-22T07:53:13;13.68;;;12.27;;
54430;SDS011;40342;52.998;5.862;2023-06-22T07:55:39;13.82;;;12.43;;
54430;SDS011;40342;52.998;5.862;2023-06-22T07:58:04;12.00;;;10.77;;
54430;SDS011;40342;52.998;5.862;2023-06-22T08:00:30;12.63;;;11.45;;
54430;SDS011;40342;52.998;5.862;2023-06-22T08:02:55;12.90;;;11.70;;
54430;SDS011;40342;52.998;5.862;2023-06-22T08:05:21;13.18;;;11.88;;
54430;SDS011;40342;52.998;5.862;2023-06-22T08:07:46;13.57;;;12.18;;
54430;SDS011;40342;52.998;5.862;2023-06-22T08:10:12;12.82;;;11.52;;
54430;SDS011;40342;52.998;5.862;2023-06-22T08:12:39;13.27;;;11.52;;
54430;SDS011;40342;52.998;5.862;2023-06-22T08:15:05;12.25;;;10.98;;
54430;SDS011;40342;52.998;5.862;2023-06-22T08:17:32;12.52;;;11.23;;
54430;SDS011;40342;52.998;5.862;2023-06-22T08:19:58;12.90;;;11.70;;
54430;SDS011;40342;52.998;5.862;2023-06-22T08:22:24;12.82;;;11.63;;
54430;SDS011;40342;52.998;5.862;2023-06-22T08:24:49;12.25;;;11.13;;
54430;SDS011;40342;52.998;5.862;2023-06-22T08:27:15;13.32;;;11.30;;
54430;SDS011;40342;52.998;5.862;2023-06-22T08:29:42;12.27;;;11.07;;
54430;SDS011;40342;52.998;5.862;2023-06-22T08:32:08;11.48;;;10.27;;
54430;SDS011;40342;52.998;5.862;2023-06-22T08:34:35;13.82;;;10.15;;
54430;SDS011;40342;52.998;5.862;2023-06-22T08:37:01;12.60;;;10.32;;
54430;SDS011;40342;52.998;5.862;2023-06-22T08:39:31;10.45;;;9.50;;
54430;SDS011;40342;52.998;5.862;2023-06-22T08:41:57;10.38;;;9.18;;
54430;SDS011;40342;52.998;5.862;2023-06-22T08:44:22;12.60;;;9.38;;
54430;SDS011;40342;52.998;5.862;2023-06-22T08:46:48;10.98;;;9.85;;
54430;SDS011;40342;52.998;5.862;2023-06-22T08:49:13;12.10;;;10.35;;
54430;SDS011;40342;52.998;5.862;2023-06-22T08:51:39;11.88;;;10.70;;
54430;SDS011;40342;52.998;5.862;2023-06-22T08:54:05;12.52;;;9.82;;
54430;SDS011;40342;52.998;5.862;2023-06-22T08:56:30;11.73;;;10.00;;
54430;SDS011;40342;52.998;5.862;2023-06-22T08:58:56;10.63;;;9.55;;
54430;SDS011;40342;52.998;5.862;2023-06-22T09:01:22;10.90;;;9.80;;
54430;SDS011;40342;52.998;5.862;2023-06-22T09:03:47;11.00;;;9.90;;
54430;SDS011;40342;52.998;5.862;2023-06-22T09:06:19;10.73;;;9.75;;
54430;SDS011;40342;52.998;5.862;2023-06-22T09:08:46;12.07;;;9.88;;
54430;SDS011;40342;52.998;5.862;2023-06-22T09:11:12;10.30;;;9.25;;
54430;SDS011;40342;52.998;5.862;2023-06-22T09:13:37;10.75;;;9.45;;
54430;SDS011;40342;52.998;5.862;2023-06-22T09:16:03;9.90;;;8.88;;
54430;SDS011;40342;52.998;5.862;2023-06-22T09:18:29;9.80;;;8.82;;
54430;SDS011;40342;52.998;5.862;2023-06-22T09:20:54;10.00;;;9.02;;
54430;SDS011;40342;52.998;5.862;2023-06-22T09:23:20;11.18;;;9.13;;
54430;SDS011;40342;52.998;5.862;2023-06-22T09:25:46;10.10;;;9.20;;
54430;SDS011;40342;52.998;5.862;2023-06-22T09:28:12;11.88;;;9.27;;
54430;SDS011;40342;52.998;5.862;2023-06-22T09:30:42;9.77;;;8.82;;
54430;SDS011;40342;52.998;5.862;2023-06-22T09:33:11;11.00;;;9.88;;
54430;SDS011;40342;52.998;5.862;2023-06-22T09:35:37;10.18;;;8.98;;
54430;SDS011;40342;52.998;5.862;2023-06-22T09:38:02;9.73;;;8.52;;
54430;SDS011;40342;52.998;5.862;2023-06-22T09:40:28;8.88;;;8.00;;
54430;SDS011;40342;52.998;5.862;2023-06-22T09:42:53;8.63;;;7.78;;
54430;SDS011;40342;52.998;5.862;2023-06-22T09:45:19;10.45;;;7.90;;
54430;SDS011;40342;52.998;5.862;2023-06-22T09:47:44;11.57;;;8.43;;
54430;SDS011;40342;52.998;5.862;2023-06-22T09:50:10;8.75;;;7.88;;
54430;SDS011;40342;52.998;5.862;2023-06-22T09:52:36;8.50;;;7.63;;
54430;SDS011;40342;52.998;5.862;2023-06-22T09:55:01;8.00;;;7.13;;
54430;SDS011;40342;52.998;5.862;2023-06-22T09:57:28;8.05;;;6.85;;
54430;SDS011;40342;52.998;5.862;2023-06-22T09:59:54;7.28;;;6.53;;
54430;SDS011;40342;52.998;5.862;2023-06-22T10:02:20;7.15;;;6.50;;
54430;SDS011;40342;52.998;5.862;2023-06-22T10:04:47;7.90;;;7.10;;
54430;SDS011;40342;52.998;5.862;2023-06-22T10:07:12;8.82;;;6.93;;
54430;SDS011;40342;52.998;5.862;2023-06-22T10:09:38;7.40;;;6.65;;
54430;SDS011;40342;52.998;5.862;2023-06-22T10:12:04;6.70;;;6.07;;
54430;SDS011;40342;52.998;5.862;2023-06-22T10:14:29;7.57;;;6.90;;
54430;SDS011;40342;52.998;5.862;2023-06-22T10:16:55;7.75;;;6.20;;
54430;SDS011;40342;52.998;5.862;2023-06-22T10:19:21;6.47;;;5.88;;
54430;SDS011;40342;52.998;5.862;2023-06-22T10:21:46;7.90;;;5.40;;
54430;SDS011;40342;52.998;5.862;2023-06-22T10:24:12;5.53;;;5.03;;
54430;SDS011;40342;52.998;5.862;2023-06-22T10:26:37;7.30;;;5.90;;
54430;SDS011;40342;52.998;5.862;2023-06-22T10:29:03;5.30;;;4.78;;
54430;SDS011;40342;52.998;5.862;2023-06-22T10:31:29;6.28;;;5.78;;
54430;SDS011;40342;52.998;5.862;2023-06-22T10:33:54;7.07;;;4.00;;
54430;SDS011;40342;52.998;5.862;2023-06-22T10:36:23;3.78;;;3.33;;
54430;SDS011;40342;52.998;5.862;2023-06-22T10:38:49;4.38;;;3.95;;
54430;SDS011;40342;52.998;5.862;2023-06-22T10:41:15;2.90;;;2.67;;
54430;SDS011;40342;52.998;5.862;2023-06-22T10:43:41;6.88;;;4.57;;
54430;SDS011;40342;52.998;5.862;2023-06-22T10:46:06;4.53;;;4.00;;
54430;SDS011;40342;52.998;5.862;2023-06-22T10:48:32;4.68;;;4.28;;
54430;SDS011;40342;52.998;5.862;2023-06-22T10:50:58;5.05;;;3.90;;
54430;SDS011;40342;52.998;5.862;2023-06-22T10:53:23;6.05;;;5.45;;
54430;SDS011;40342;52.998;5.862;2023-06-22T10:55:49;6.45;;;5.05;;
54430;SDS011;40342;52.998;5.862;2023-06-22T10:58:14;5.72;;;5.15;;
54430;SDS011;40342;52.998;5.862;2023-06-22T11:00:40;5.63;;;4.53;;
54430;SDS011;40342;52.998;5.862;2023-06-22T11:03:06;6.10;;;4.55;;
54430;SDS011;40342;52.998;5.862;2023-06-22T11:05:31;4.32;;;3.92;;
54430;SDS011;40342;52.998;5.862;2023-06-22T11:07:57;6.30;;;3.70;;
54430;SDS011;40342;52.998;5.862;2023-06-22T11:10:23;4.13;;;3.83;;
54430;SDS011;40342;52.998;5.862;2023-06-22T11:12:48;6.40;;;4.20;;
54430;SDS011;40342;52.998;5.862;2023-06-22T11:15:14;6.20;;;4.72;;
54430;SDS011;40342;52.998;5.862;2023-06-22T11:17:39;4.07;;;3.78;;
54430;SDS011;40342;52.998;5.862;2023-06-22T11:20:05;4.35;;;3.95;;
54430;SDS011;40342;52.998;5.862;2023-06-22T11:22:36;3.80;;;3.50;;
54430;SDS011;40342;52.998;5.862;2023-06-22T11:25:05;5.25;;;3.60;;
54430;SDS011;40342;52.998;5.862;2023-06-22T11:27:31;4.20;;;3.40;;
54430;SDS011;40342;52.998;5.862;2023-06-22T11:29:57;4.07;;;3.70;;
54430;SDS011;40342;52.998;5.862;2023-06-22T11:32:22;5.45;;;3.63;;
54430;SDS011;40342;52.998;5.862;2023-06-22T11:34:48;5.68;;;3.80;;
54430;SDS011;40342;52.998;5.862;2023-06-22T11:37:14;6.03;;;3.90;;
54430;SDS011;40342;52.998;5.862;2023-06-22T11:39:40;3.60;;;3.30;;
54430;SDS011;40342;52.998;5.862;2023-06-22T11:42:06;4.47;;;3.90;;
54430;SDS011;40342;52.998;5.862;2023-06-22T11:44:32;3.83;;;3.53;;
54430;SDS011;40342;52.998;5.862;2023-06-22T11:46:57;3.53;;;3.15;;
54430;SDS011;40342;52.998;5.862;2023-06-22T11:49:25;3.97;;;3.67;;
54430;SDS011;40342;52.998;5.862;2023-06-22T11:51:51;4.50;;;3.17;;
54430;SDS011;40342;52.998;5.862;2023-06-22T11:54:17;8.80;;;3.42;;
54430;SDS011;40342;52.998;5.862;2023-06-22T11:56:43;10.32;;;4.50;;
54430;SDS011;40342;52.998;5.862;2023-06-22T11:59:08;4.35;;;3.72;;
54430;SDS011;40342;52.998;5.862;2023-06-22T12:01:34;4.75;;;3.80;;
54430;SDS011;40342;52.998;5.862;2023-06-22T12:03:59;5.75;;;3.90;;
54430;SDS011;40342;52.998;5.862;2023-06-22T12:06:25;5.13;;;4.03;;
54430;SDS011;40342;52.998;5.862;2023-06-22T12:08:50;7.28;;;4.35;;
54430;SDS011;40342;52.998;5.862;2023-06-22T12:11:16;3.75;;;3.30;;
54430;SDS011;40342;52.998;5.862;2023-06-22T12:13:42;4.03;;;3.65;;
54430;SDS011;40342;52.998;5.862;2023-06-22T12:16:07;4.03;;;3.72;;
54430;SDS011;40342;52.998;5.862;2023-06-22T12:18:33;6.25;;;3.63;;
54430;SDS011;40342;52.998;5.862;2023-06-22T12:20:58;5.15;;;3.55;;
54430;SDS011;40342;52.998;5.862;2023-06-22T12:23:24;4.13;;;3.75;;
54430;SDS011;40342;52.998;5.862;2023-06-22T12:25:50;4.00;;;3.70;;
54430;SDS011;40342;52.998;5.862;2023-06-22T12:28:15;4.78;;;3.97;;
54430;SDS011;40342;52.998;5.862;2023-06-22T12:30:41;3.83;;;3.53;;
54430;SDS011;40342;52.998;5.862;2023-06-22T12:33:06;4.90;;;4.50;;
54430;SDS011;40342;52.998;5.862;2023-06-22T12:35:32;4.80;;;3.90;;
54430;SDS011;40342;52.998;5.862;2023-06-22T12:37:58;7.25;;;3.70;;
54430;SDS011;40342;52.998;5.862;2023-06-22T12:40:23;4.43;;;3.88;;
54430;SDS011;40342;52.998;5.862;2023-06-22T12:42:49;4.43;;;4.07;;
54430;SDS011;40342;52.998;5.862;2023-06-22T12:45:15;4.05;;;3.75;;
54430;SDS011;40342;52.998;5.862;2023-06-22T12:47:40;3.88;;;3.53;;
54430;SDS011;40342;52.998;5.862;2023-06-22T12:50:06;4.85;;;4.45;;
54430;SDS011;40342;52.998;5.862;2023-06-22T12:52:32;5.03;;;4.15;;
54430;SDS011;40342;52.998;5.862;2023-06-22T12:54:58;5.05;;;4.55;;
54430;SDS011;40342;52.998;5.862;2023-06-22T12:57:23;4.50;;;4.10;;
54430;SDS011;40342;52.998;5.862;2023-06-22T12:59:49;4.43;;;4.10;;
54430;SDS011;40342;52.998;5.862;2023-06-22T13:02:14;4.32;;;4.03;;
54430;SDS011;40342;52.998;5.862;2023-06-22T13:04:40;4.25;;;3.85;;
54430;SDS011;40342;52.998;5.862;2023-06-22T13:07:06;6.00;;;5.20;;
54430;SDS011;40342;52.998;5.862;2023-06-22T13:09:32;5.82;;;5.22;;
54430;SDS011;40342;52.998;5.862;2023-06-22T13:11:59;5.05;;;4.50;;
54430;SDS011;40342;52.998;5.862;2023-06-22T13:14:25;4.28;;;3.85;;
54430;SDS011;40342;52.998;5.862;2023-06-22T13:16:50;5.68;;;3.72;;
54430;SDS011;40342;52.998;5.862;2023-06-22T13:19:16;4.82;;;4.35;;
54430;SDS011;40342;52.998;5.862;2023-06-22T13:21:42;5.40;;;4.32;;
54430;SDS011;40342;52.998;5.862;2023-06-22T13:24:07;5.30;;;4.80;;
54430;SDS011;40342;52.998;5.862;2023-06-22T13:26:33;4.97;;;4.57;;
54430;SDS011;40342;52.998;5.862;2023-06-22T13:28:58;6.28;;;4.70;;
54430;SDS011;40342;52.998;5.862;2023-06-22T13:31:24;7.07;;;4.20;;
54430;SDS011;40342;52.998;5.862;2023-06-22T13:33:51;5.78;;;3.72;;
54430;SDS011;40342;52.998;5.862;2023-06-22T13:36:19;4.45;;;4.03;;
54430;SDS011;40342;52.998;5.862;2023-06-22T13:38:47;4.32;;;4.03;;
54430;SDS011;40342;52.998;5.862;2023-06-22T13:41:13;4.22;;;3.83;;
54430;SDS011;40342;52.998;5.862;2023-06-22T13:43:38;3.95;;;3.55;;
54430;SDS011;40342;52.998;5.862;2023-06-22T13:46:04;4.53;;;3.55;;
54430;SDS011;40342;52.998;5.862;2023-06-22T13:48:29;3.72;;;3.42;;
54430;SDS011;40342;52.998;5.862;2023-06-22T13:50:55;3.53;;;3.22;;
54430;SDS011;40342;52.998;5.862;2023-06-22T13:53:21;3.47;;;3.15;;
54430;SDS011;40342;52.998;5.862;2023-06-22T13:55:46;6.53;;;3.90;;
54430;SDS011;40342;52.998;5.862;2023-06-22T13:58:12;4.25;;;3.85;;
54430;SDS011;40342;52.998;5.862;2023-06-22T14:00:38;3.63;;;3.33;;
54430;SDS011;40342;52.998;5.862;2023-06-22T14:03:04;6.05;;;3.22;;
54430;SDS011;40342;52.998;5.862;2023-06-22T14:05:29;2.80;;;2.60;;
54430;SDS011;40342;52.998;5.862;2023-06-22T14:07:55;3.05;;;2.00;;
54430;SDS011;40342;52.998;5.862;2023-06-22T14:10:21;4.65;;;2.25;;
54430;SDS011;40342;52.998;5.862;2023-06-22T14:12:46;3.85;;;1.92;;
54430;SDS011;40342;52.998;5.862;2023-06-22T14:15:12;3.55;;;1.85;;
54430;SDS011;40342;52.998;5.862;2023-06-22T14:17:37;3.85;;;2.15;;
54430;SDS011;40342;52.998;5.862;2023-06-22T14:20:03;3.42;;;2.13;;
54430;SDS011;40342;52.998;5.862;2023-06-22T14:22:30;2.03;;;1.90;;
54430;SDS011;40342;52.998;5.862;2023-06-22T14:24:56;4.75;;;2.53;;
54430;SDS011;40342;52.998;5.862;2023-06-22T14:27:22;2.17;;;1.88;;
54430;SDS011;40342;52.998;5.862;2023-06-22T14:29:48;4.00;;;2.40;;
54430;SDS011;40342;52.998;5.862;2023-06-22T14:32:14;4.50;;;2.58;;
54430;SDS011;40342;52.998;5.862;2023-06-22T14:34:39;2.92;;;2.10;;
54430;SDS011;40342;52.998;5.862;2023-06-22T14:37:06;3.55;;;2.10;;
54430;SDS011;40342;52.998;5.862;2023-06-22T14:39:32;3.60;;;2.22;;
54430;SDS011;40342;52.998;5.862;2023-06-22T14:41:58;1.50;;;1.40;;
54430;SDS011;40342;52.998;5.862;2023-06-22T14:44:25;1.60;;;1.45;;
54430;SDS011;40342;52.998;5.862;2023-06-22T14:46:51;3.58;;;1.42;;